sensor_id;sensor_type;location;lat;lon;timestamp;temperature;humidity
60701;DHT22;46541;49.894;10.886;2022-12-29T00:02:21;8.00;99.90
60701;DHT22;46541;49.894;10.886;2022-12-29T00:04:49;8.00;99.90
60701;DHT22;46541;49.894;10.886;2022-12-29T00:07:17;8.00;99.90
60701;DHT22;46541;49.894;10.886;2022-12-29T00:09:44;8.00;99.90
60701;DHT22;46541;49.894;10.886;2022-12-29T00:12:11;8.10;99.90
60701;DHT22;46541;49.894;10.886;2022-12-29T00:14:38;8.10;99.90
60701;DHT22;46541;49.894;10.886;2022-12-29T00:17:23;8.10;99.90
60701;DHT22;46541;49.894;10.886;2022-12-29T00:19:50;8.10;99.90
60701;DHT22;46541;49.894;10.886;2022-12-29T00:22:35;8.10;99.90
60701;DHT22;46541;49.894;10.886;2022-12-29T00:25:21;8.20;99.90
60701;DHT22;46541;49.894;10.886;2022-12-29T00:28:08;8.20;99.90
60701;DHT22;46541;49.894;10.886;2022-12-29T00:30:58;8.20;99.90
60701;DHT22;46541;49.894;10.886;2022-12-29T00:33:43;8.20;99.90
60701;DHT22;46541;49.894;10.886;2022-12-29T00:36:35;8.20;99.90
60701;DHT22;46541;49.894;10.886;2022-12-29T00:39:07;8.30;99.90
60701;DHT22;46541;49.894;10.886;2022-12-29T00:41:53;8.30;99.90
60701;DHT22;46541;49.894;10.886;2022-12-29T00:44:39;8.30;99.90
60701;DHT22;46541;49.894;10.886;2022-12-29T00:47:05;8.30;99.90
60701;DHT22;46541;49.894;10.886;2022-12-29T00:49:32;8.30;99.90
60701;DHT22;46541;49.894;10.886;2022-12-29T00:52:11;8.30;99.90
60701;DHT22;46541;49.894;10.886;2022-12-29T00:54:39;8.40;99.90
60701;DHT22;46541;49.894;10.886;2022-12-29T00:57:08;8.40;99.90
60701;DHT22;46541;49.894;10.886;2022-12-29T00:59:40;8.40;99.90
60701;DHT22;46541;49.894;10.886;2022-12-29T01:02:07;8.40;99.90
60701;DHT22;46541;49.894;10.886;2022-12-29T01:04:35;8.40;99.90
60701;DHT22;46541;49.894;10.886;2022-12-29T01:07:02;8.40;99.90
60701;DHT22;46541;49.894;10.886;2022-12-29T01:09:28;8.40;99.90
60701;DHT22;46541;49.894;10.886;2022-12-29T01:12:14;8.40;99.90
60701;DHT22;46541;49.894;10.886;2022-12-29T01:14:43;8.40;99.90
60701;DHT22;46541;49.894;10.886;2022-12-29T01:17:10;8.40;99.90
60701;DHT22;46541;49.894;10.886;2022-12-29T01:19:37;8.40;99.90
60701;DHT22;46541;49.894;10.886;2022-12-29T01:22:03;8.40;99.90
60701;DHT22;46541;49.894;10.886;2022-12-29T01:24:30;8.40;99.90
60701;DHT22;46541;49.894;10.886;2022-12-29T01:26:57;8.50;99.90
60701;DHT22;46541;49.894;10.886;2022-12-29T01:29:24;8.50;99.90
60701;DHT22;46541;49.894;10.886;2022-12-29T01:31:51;8.50;99.90
60701;DHT22;46541;49.894;10.886;2022-12-29T01:34:18;8.50;99.90
60701;DHT22;46541;49.894;10.886;2022-12-29T01:36:45;8.50;99.90
60701;DHT22;46541;49.894;10.886;2022-12-29T01:39:11;8.50;99.90
60701;DHT22;46541;49.894;10.886;2022-12-29T01:41:40;8.50;99.90
60701;DHT22;46541;49.894;10.886;2022-12-29T01:47:10;8.60;99.90
60701;DHT22;46541;49.894;10.886;2022-12-29T01:49:38;8.60;99.90
60701;DHT22;46541;49.894;10.886;2022-12-29T01:52:07;8.60;99.90
60701;DHT22;46541;49.894;10.886;2022-12-29T01:54:40;8.60;99.90
60701;DHT22;46541;49.894;10.886;2022-12-29T01:57:13;8.60;99.90
60701;DHT22;46541;49.894;10.886;2022-12-29T01:59:50;8.70;99.90
60701;DHT22;46541;49.894;10.886;2022-12-29T02:02:18;8.60;99.90
60701;DHT22;46541;49.894;10.886;2022-12-29T02:04:45;8.70;99.90
60701;DHT22;46541;49.894;10.886;2022-12-29T02:07:18;8.70;99.90
60701;DHT22;46541;49.894;10.886;2022-12-29T02:09:49;8.70;99.90
60701;DHT22;46541;49.894;10.886;2022-12-29T02:12:18;8.70;99.90
60701;DHT22;46541;49.894;10.886;2022-12-29T02:14:47;8.70;99.90
60701;DHT22;46541;49.894;10.886;2022-12-29T02:29:49;8.80;99.90
60701;DHT22;46541;49.894;10.886;2022-12-29T02:31:48;8.90;99.90
60701;DHT22;46541;49.894;10.886;2022-12-29T02:43:14;8.90;99.90
60701;DHT22;46541;49.894;10.886;2022-12-29T02:48:43;9.00;99.90
60701;DHT22;46541;49.894;10.886;2022-12-29T02:51:25;9.00;99.90
60701;DHT22;46541;49.894;10.886;2022-12-29T02:53:54;9.00;99.90
60701;DHT22;46541;49.894;10.886;2022-12-29T02:56:40;9.00;99.90
60701;DHT22;46541;49.894;10.886;2022-12-29T02:59:07;9.10;99.90
60701;DHT22;46541;49.894;10.886;2022-12-29T03:07:46;9.10;99.90
60701;DHT22;46541;49.894;10.886;2022-12-29T03:10:33;9.20;99.90
60701;DHT22;46541;49.894;10.886;2022-12-29T03:13:12;9.20;99.90
60701;DHT22;46541;49.894;10.886;2022-12-29T03:19:07;9.30;99.90
60701;DHT22;46541;49.894;10.886;2022-12-29T03:21:49;9.30;99.90
60701;DHT22;46541;49.894;10.886;2022-12-29T03:24:40;9.30;99.90
60701;DHT22;46541;49.894;10.886;2022-12-29T03:27:10;9.30;99.90
60701;DHT22;46541;49.894;10.886;2022-12-29T03:29:48;9.30;99.90
60701;DHT22;46541;49.894;10.886;2022-12-29T03:32:22;9.30;99.90
60701;DHT22;46541;49.894;10.886;2022-12-29T03:34:50;9.40;99.90
60701;DHT22;46541;49.894;10.886;2022-12-29T03:37:22;9.30;99.90
60701;DHT22;46541;49.894;10.886;2022-12-29T03:39:50;9.30;99.90
60701;DHT22;46541;49.894;10.886;2022-12-29T03:42:19;9.30;99.90
60701;DHT22;46541;49.894;10.886;2022-12-29T03:44:47;9.30;99.90
60701;DHT22;46541;49.894;10.886;2022-12-29T03:47:15;9.30;99.90
60701;DHT22;46541;49.894;10.886;2022-12-29T03:49:42;9.30;99.90
60701;DHT22;46541;49.894;10.886;2022-12-29T03:52:09;9.30;99.90
60701;DHT22;46541;49.894;10.886;2022-12-29T03:54:36;9.30;99.90
60701;DHT22;46541;49.894;10.886;2022-12-29T03:57:03;9.30;99.90
60701;DHT22;46541;49.894;10.886;2022-12-29T03:59:29;9.30;99.90
60701;DHT22;46541;49.894;10.886;2022-12-29T04:01:56;9.30;99.90
60701;DHT22;46541;49.894;10.886;2022-12-29T04:04:23;9.30;99.90
60701;DHT22;46541;49.894;10.886;2022-12-29T04:06:50;9.30;99.90
60701;DHT22;46541;49.894;10.886;2022-12-29T04:09:17;9.30;99.90
60701;DHT22;46541;49.894;10.886;2022-12-29T04:11:43;9.30;99.90
60701;DHT22;46541;49.894;10.886;2022-12-29T04:14:10;9.30;99.90
60701;DHT22;46541;49.894;10.886;2022-12-29T04:16:37;9.30;99.90
60701;DHT22;46541;49.894;10.886;2022-12-29T04:19:06;9.30;99.90
60701;DHT22;46541;49.894;10.886;2022-12-29T04:21:34;9.30;99.90
60701;DHT22;46541;49.894;10.886;2022-12-29T04:24:00;9.30;99.90
60701;DHT22;46541;49.894;10.886;2022-12-29T04:26:27;9.30;99.90
60701;DHT22;46541;49.894;10.886;2022-12-29T04:28:54;9.30;99.90
60701;DHT22;46541;49.894;10.886;2022-12-29T04:31:21;9.30;99.90
60701;DHT22;46541;49.894;10.886;2022-12-29T04:33:48;9.30;99.90
60701;DHT22;46541;49.894;10.886;2022-12-29T04:36:14;9.30;99.90
60701;DHT22;46541;49.894;10.886;2022-12-29T04:38:44;9.30;99.90
60701;DHT22;46541;49.894;10.886;2022-12-29T04:41:10;9.30;99.90
60701;DHT22;46541;49.894;10.886;2022-12-29T04:43:37;9.30;99.90
60701;DHT22;46541;49.894;10.886;2022-12-29T04:46:04;9.30;99.90
60701;DHT22;46541;49.894;10.886;2022-12-29T04:48:31;9.30;99.90
60701;DHT22;46541;49.894;10.886;2022-12-29T04:50:58;9.30;99.90
60701;DHT22;46541;49.894;10.886;2022-12-29T04:53:25;9.20;99.90
60701;DHT22;46541;49.894;10.886;2022-12-29T04:55:52;9.20;99.90
60701;DHT22;46541;49.894;10.886;2022-12-29T04:58:20;9.30;99.90
60701;DHT22;46541;49.894;10.886;2022-12-29T05:00:50;9.30;99.90
60701;DHT22;46541;49.894;10.886;2022-12-29T05:03:17;9.20;99.90
60701;DHT22;46541;49.894;10.886;2022-12-29T05:05:45;9.20;99.90
60701;DHT22;46541;49.894;10.886;2022-12-29T05:08:11;9.20;99.90
60701;DHT22;46541;49.894;10.886;2022-12-29T05:10:39;9.20;99.90
60701;DHT22;46541;49.894;10.886;2022-12-29T05:13:05;9.10;99.90
60701;DHT22;46541;49.894;10.886;2022-12-29T05:15:33;9.10;99.90
60701;DHT22;46541;49.894;10.886;2022-12-29T05:17:59;9.10;99.90
60701;DHT22;46541;49.894;10.886;2022-12-29T05:20:26;9.10;99.90
60701;DHT22;46541;49.894;10.886;2022-12-29T05:22:53;9.10;99.90
60701;DHT22;46541;49.894;10.886;2022-12-29T05:25:20;9.10;99.90
60701;DHT22;46541;49.894;10.886;2022-12-29T05:27:46;9.10;99.90
60701;DHT22;46541;49.894;10.886;2022-12-29T05:30:13;9.00;99.90
60701;DHT22;46541;49.894;10.886;2022-12-29T05:32:40;9.00;99.90
60701;DHT22;46541;49.894;10.886;2022-12-29T05:35:07;8.90;99.90
60701;DHT22;46541;49.894;10.886;2022-12-29T05:37:34;8.90;99.90
60701;DHT22;46541;49.894;10.886;2022-12-29T05:40:01;8.80;99.90
60701;DHT22;46541;49.894;10.886;2022-12-29T05:42:27;8.80;99.90
60701;DHT22;46541;49.894;10.886;2022-12-29T05:44:54;8.70;99.90
60701;DHT22;46541;49.894;10.886;2022-12-29T05:47:21;8.70;99.90
60701;DHT22;46541;49.894;10.886;2022-12-29T05:49:48;8.60;99.90
60701;DHT22;46541;49.894;10.886;2022-12-29T05:52:15;8.60;99.90
60701;DHT22;46541;49.894;10.886;2022-12-29T05:54:42;8.60;99.90
60701;DHT22;46541;49.894;10.886;2022-12-29T05:57:09;8.60;99.90
60701;DHT22;46541;49.894;10.886;2022-12-29T05:59:36;8.60;99.90
60701;DHT22;46541;49.894;10.886;2022-12-29T06:02:03;8.50;99.90
60701;DHT22;46541;49.894;10.886;2022-12-29T06:04:30;8.50;99.90
60701;DHT22;46541;49.894;10.886;2022-12-29T06:06:56;8.50;99.90
60701;DHT22;46541;49.894;10.886;2022-12-29T06:09:23;8.50;99.90
60701;DHT22;46541;49.894;10.886;2022-12-29T06:11:50;8.50;99.90
60701;DHT22;46541;49.894;10.886;2022-12-29T06:14:17;8.50;99.90
60701;DHT22;46541;49.894;10.886;2022-12-29T06:16:43;8.50;99.90
60701;DHT22;46541;49.894;10.886;2022-12-29T06:19:10;8.50;99.90
60701;DHT22;46541;49.894;10.886;2022-12-29T06:21:37;8.50;99.90
60701;DHT22;46541;49.894;10.886;2022-12-29T06:24:05;8.50;99.90
60701;DHT22;46541;49.894;10.886;2022-12-29T06:26:31;8.60;99.90
60701;DHT22;46541;49.894;10.886;2022-12-29T06:28:58;8.60;99.90
60701;DHT22;46541;49.894;10.886;2022-12-29T06:31:25;8.60;99.90
60701;DHT22;46541;49.894;10.886;2022-12-29T06:33:52;8.60;99.90
60701;DHT22;46541;49.894;10.886;2022-12-29T06:36:19;8.60;99.90
60701;DHT22;46541;49.894;10.886;2022-12-29T06:38:46;8.60;99.90
60701;DHT22;46541;49.894;10.886;2022-12-29T06:41:13;8.60;99.90
60701;DHT22;46541;49.894;10.886;2022-12-29T06:43:39;8.60;99.90
60701;DHT22;46541;49.894;10.886;2022-12-29T06:46:06;8.60;99.90
60701;DHT22;46541;49.894;10.886;2022-12-29T06:48:33;8.60;99.90
60701;DHT22;46541;49.894;10.886;2022-12-29T06:51:00;8.60;99.90
60701;DHT22;46541;49.894;10.886;2022-12-29T06:53:27;8.70;99.90
60701;DHT22;46541;49.894;10.886;2022-12-29T06:55:54;8.70;99.90
60701;DHT22;46541;49.894;10.886;2022-12-29T06:58:23;8.80;99.90
60701;DHT22;46541;49.894;10.886;2022-12-29T07:00:50;8.80;99.90
60701;DHT22;46541;49.894;10.886;2022-12-29T07:03:17;8.80;99.90
60701;DHT22;46541;49.894;10.886;2022-12-29T07:05:44;8.80;99.90
60701;DHT22;46541;49.894;10.886;2022-12-29T07:08:10;8.90;99.90
60701;DHT22;46541;49.894;10.886;2022-12-29T07:10:37;8.90;99.90
60701;DHT22;46541;49.894;10.886;2022-12-29T07:13:04;8.90;99.90
60701;DHT22;46541;49.894;10.886;2022-12-29T07:15:31;9.00;99.90
60701;DHT22;46541;49.894;10.886;2022-12-29T07:17:57;9.00;99.90
60701;DHT22;46541;49.894;10.886;2022-12-29T07:20:24;9.00;99.90
60701;DHT22;46541;49.894;10.886;2022-12-29T07:22:53;9.00;99.90
60701;DHT22;46541;49.894;10.886;2022-12-29T07:25:19;9.10;99.90
60701;DHT22;46541;49.894;10.886;2022-12-29T07:27:46;9.10;99.90
60701;DHT22;46541;49.894;10.886;2022-12-29T07:30:14;9.10;99.90
60701;DHT22;46541;49.894;10.886;2022-12-29T07:32:40;9.10;99.90
60701;DHT22;46541;49.894;10.886;2022-12-29T07:35:08;9.10;99.90
60701;DHT22;46541;49.894;10.886;2022-12-29T07:37:35;9.10;99.90
60701;DHT22;46541;49.894;10.886;2022-12-29T07:40:02;9.20;99.90
60701;DHT22;46541;49.894;10.886;2022-12-29T07:42:30;9.20;99.90
60701;DHT22;46541;49.894;10.886;2022-12-29T07:44:57;9.20;99.90
60701;DHT22;46541;49.894;10.886;2022-12-29T07:47:24;9.30;99.90
60701;DHT22;46541;49.894;10.886;2022-12-29T07:49:51;9.30;99.90
60701;DHT22;46541;49.894;10.886;2022-12-29T07:52:19;9.40;99.90
60701;DHT22;46541;49.894;10.886;2022-12-29T07:54:46;9.40;99.90
60701;DHT22;46541;49.894;10.886;2022-12-29T07:57:13;9.40;99.90
60701;DHT22;46541;49.894;10.886;2022-12-29T07:59:40;9.40;99.90
60701;DHT22;46541;49.894;10.886;2022-12-29T08:02:10;9.40;99.90
60701;DHT22;46541;49.894;10.886;2022-12-29T08:04:38;9.40;99.90
60701;DHT22;46541;49.894;10.886;2022-12-29T08:07:04;9.40;99.90
60701;DHT22;46541;49.894;10.886;2022-12-29T08:09:31;9.40;99.90
60701;DHT22;46541;49.894;10.886;2022-12-29T08:11:58;9.50;99.90
60701;DHT22;46541;49.894;10.886;2022-12-29T08:14:25;9.50;99.90
60701;DHT22;46541;49.894;10.886;2022-12-29T08:16:52;9.50;99.90
60701;DHT22;46541;49.894;10.886;2022-12-29T08:19:18;9.50;99.90
60701;DHT22;46541;49.894;10.886;2022-12-29T08:21:45;9.50;99.90
60701;DHT22;46541;49.894;10.886;2022-12-29T08:24:12;9.50;99.90
60701;DHT22;46541;49.894;10.886;2022-12-29T08:26:39;9.50;99.90
60701;DHT22;46541;49.894;10.886;2022-12-29T08:29:06;9.60;99.90
60701;DHT22;46541;49.894;10.886;2022-12-29T08:31:32;9.60;99.90
60701;DHT22;46541;49.894;10.886;2022-12-29T08:33:59;9.60;99.90
60701;DHT22;46541;49.894;10.886;2022-12-29T08:36:26;9.60;99.90
60701;DHT22;46541;49.894;10.886;2022-12-29T08:38:53;9.60;99.90
60701;DHT22;46541;49.894;10.886;2022-12-29T08:41:20;9.60;99.90
60701;DHT22;46541;49.894;10.886;2022-12-29T08:43:47;9.60;99.90
60701;DHT22;46541;49.894;10.886;2022-12-29T08:46:15;9.70;99.90
60701;DHT22;46541;49.894;10.886;2022-12-29T08:48:42;9.70;99.90
60701;DHT22;46541;49.894;10.886;2022-12-29T08:51:09;9.70;99.90
60701;DHT22;46541;49.894;10.886;2022-12-29T08:53:36;9.70;99.90
60701;DHT22;46541;49.894;10.886;2022-12-29T08:56:02;9.70;99.90
60701;DHT22;46541;49.894;10.886;2022-12-29T08:58:31;9.70;99.90
60701;DHT22;46541;49.894;10.886;2022-12-29T09:00:59;9.80;99.90
60701;DHT22;46541;49.894;10.886;2022-12-29T09:03:26;9.80;99.90
60701;DHT22;46541;49.894;10.886;2022-12-29T09:06:16;9.80;99.90
60701;DHT22;46541;49.894;10.886;2022-12-29T09:08:44;9.80;99.90
60701;DHT22;46541;49.894;10.886;2022-12-29T09:11:14;9.90;99.90
60701;DHT22;46541;49.894;10.886;2022-12-29T09:13:41;9.90;99.90
60701;DHT22;46541;49.894;10.886;2022-12-29T09:16:08;9.90;99.90
60701;DHT22;46541;49.894;10.886;2022-12-29T09:18:36;9.90;99.90
60701;DHT22;46541;49.894;10.886;2022-12-29T09:21:04;9.90;99.90
60701;DHT22;46541;49.894;10.886;2022-12-29T09:23:33;9.90;99.90
60701;DHT22;46541;49.894;10.886;2022-12-29T09:26:00;9.90;99.90
60701;DHT22;46541;49.894;10.886;2022-12-29T09:28:27;9.90;99.90
60701;DHT22;46541;49.894;10.886;2022-12-29T09:30:56;9.90;99.90
60701;DHT22;46541;49.894;10.886;2022-12-29T09:33:23;9.90;99.90
60701;DHT22;46541;49.894;10.886;2022-12-29T09:35:56;10.00;99.90
60701;DHT22;46541;49.894;10.886;2022-12-29T09:38:24;9.90;99.90
60701;DHT22;46541;49.894;10.886;2022-12-29T09:41:28;10.00;99.90
60701;DHT22;46541;49.894;10.886;2022-12-29T09:43:55;10.00;99.90
60701;DHT22;46541;49.894;10.886;2022-12-29T09:46:34;10.00;99.90
60701;DHT22;46541;49.894;10.886;2022-12-29T09:52:04;10.00;99.90
60701;DHT22;46541;49.894;10.886;2022-12-29T09:55:03;10.00;99.90
60701;DHT22;46541;49.894;10.886;2022-12-29T09:57:40;10.00;99.90
60701;DHT22;46541;49.894;10.886;2022-12-29T10:02:43;10.10;99.90
60701;DHT22;46541;49.894;10.886;2022-12-29T10:05:19;10.10;99.90
60701;DHT22;46541;49.894;10.886;2022-12-29T10:08:06;10.10;99.90
60701;DHT22;46541;49.894;10.886;2022-12-29T10:19:46;10.20;99.90
60701;DHT22;46541;49.894;10.886;2022-12-29T10:24:49;10.20;99.90
60701;DHT22;46541;49.894;10.886;2022-12-29T10:27:18;10.30;99.90
60701;DHT22;46541;49.894;10.886;2022-12-29T10:29:50;10.30;99.90
60701;DHT22;46541;49.894;10.886;2022-12-29T10:32:32;10.30;99.90
60701;DHT22;46541;49.894;10.886;2022-12-29T10:35:14;10.30;99.90
60701;DHT22;46541;49.894;10.886;2022-12-29T10:40:31;10.30;99.90
60701;DHT22;46541;49.894;10.886;2022-12-29T10:43:00;10.30;99.90
60701;DHT22;46541;49.894;10.886;2022-12-29T10:45:30;10.30;99.90
60701;DHT22;46541;49.894;10.886;2022-12-29T10:48:04;10.30;99.90
60701;DHT22;46541;49.894;10.886;2022-12-29T10:50:33;10.20;99.90
60701;DHT22;46541;49.894;10.886;2022-12-29T10:53:02;10.30;99.90
60701;DHT22;46541;49.894;10.886;2022-12-29T10:55:35;10.30;99.90
60701;DHT22;46541;49.894;10.886;2022-12-29T10:58:05;10.40;99.90
60701;DHT22;46541;49.894;10.886;2022-12-29T11:00:33;10.50;99.90
60701;DHT22;46541;49.894;10.886;2022-12-29T11:05:54;10.50;99.90
60701;DHT22;46541;49.894;10.886;2022-12-29T11:08:25;10.50;99.90
60701;DHT22;46541;49.894;10.886;2022-12-29T11:13:31;10.50;99.90
60701;DHT22;46541;49.894;10.886;2022-12-29T11:16:04;10.50;99.90
60701;DHT22;46541;49.894;10.886;2022-12-29T11:18:34;10.50;99.90
60701;DHT22;46541;49.894;10.886;2022-12-29T11:21:06;10.50;99.90
60701;DHT22;46541;49.894;10.886;2022-12-29T11:23:38;10.60;99.90
60701;DHT22;46541;49.894;10.886;2022-12-29T11:26:21;10.60;99.90
60701;DHT22;46541;49.894;10.886;2022-12-29T11:29:16;10.60;99.90
60701;DHT22;46541;49.894;10.886;2022-12-29T11:34:23;10.70;99.90
60701;DHT22;46541;49.894;10.886;2022-12-29T11:36:57;10.80;99.90
60701;DHT22;46541;49.894;10.886;2022-12-29T11:39:47;10.80;99.90
60701;DHT22;46541;49.894;10.886;2022-12-29T11:42:24;10.90;99.90
60701;DHT22;46541;49.894;10.886;2022-12-29T11:44:56;10.80;99.90
60701;DHT22;46541;49.894;10.886;2022-12-29T11:47:31;10.80;99.90
60701;DHT22;46541;49.894;10.886;2022-12-29T11:50:03;10.80;99.90
60701;DHT22;46541;49.894;10.886;2022-12-29T11:52:36;10.80;99.90
60701;DHT22;46541;49.894;10.886;2022-12-29T11:55:17;10.90;99.90
60701;DHT22;46541;49.894;10.886;2022-12-29T11:57:45;11.00;99.90
60701;DHT22;46541;49.894;10.886;2022-12-29T12:00:20;11.10;99.90
60701;DHT22;46541;49.894;10.886;2022-12-29T12:03:01;11.20;99.90
60701;DHT22;46541;49.894;10.886;2022-12-29T12:16:46;11.40;99.90
60701;DHT22;46541;49.894;10.886;2022-12-29T12:22:15;11.50;99.90
60701;DHT22;46541;49.894;10.886;2022-12-29T12:24:53;11.40;99.90
60701;DHT22;46541;49.894;10.886;2022-12-29T12:27:37;11.40;99.90
60701;DHT22;46541;49.894;10.886;2022-12-29T12:30:18;11.40;99.90
60701;DHT22;46541;49.894;10.886;2022-12-29T12:39:06;11.30;99.90
60701;DHT22;46541;49.894;10.886;2022-12-29T12:41:52;11.30;99.90
60701;DHT22;46541;49.894;10.886;2022-12-29T12:44:25;11.30;99.90
60701;DHT22;46541;49.894;10.886;2022-12-29T12:49:52;11.40;99.90
60701;DHT22;46541;49.894;10.886;2022-12-29T12:52:53;11.30;99.90
60701;DHT22;46541;49.894;10.886;2022-12-29T12:58:30;11.40;99.90
60701;DHT22;46541;49.894;10.886;2022-12-29T13:01:22;11.40;99.90
60701;DHT22;46541;49.894;10.886;2022-12-29T13:17:30;11.50;99.90
60701;DHT22;46541;49.894;10.886;2022-12-29T13:22:58;11.50;99.90
60701;DHT22;46541;49.894;10.886;2022-12-29T13:25:43;11.50;99.90
60701;DHT22;46541;49.894;10.886;2022-12-29T13:28:20;11.50;99.90
60701;DHT22;46541;49.894;10.886;2022-12-29T13:30:56;11.40;99.90
60701;DHT22;46541;49.894;10.886;2022-12-29T13:33:58;11.50;99.90
60701;DHT22;46541;49.894;10.886;2022-12-29T13:39:31;11.50;99.90
60701;DHT22;46541;49.894;10.886;2022-12-29T13:42:01;11.50;99.90
60701;DHT22;46541;49.894;10.886;2022-12-29T13:44:33;11.50;99.90
60701;DHT22;46541;49.894;10.886;2022-12-29T13:47:21;11.50;99.90
60701;DHT22;46541;49.894;10.886;2022-12-29T13:49:52;11.60;99.90
60701;DHT22;46541;49.894;10.886;2022-12-29T13:52:38;11.50;99.90
60701;DHT22;46541;49.894;10.886;2022-12-29T14:01:10;11.60;99.90
60701;DHT22;46541;49.894;10.886;2022-12-29T14:03:48;11.70;99.90
60701;DHT22;46541;49.894;10.886;2022-12-29T14:06:21;11.70;99.90
60701;DHT22;46541;49.894;10.886;2022-12-29T14:11:33;11.80;99.90
60701;DHT22;46541;49.894;10.886;2022-12-29T14:16:44;11.80;99.90
60701;DHT22;46541;49.894;10.886;2022-12-29T14:21:39;11.80;99.90
60701;DHT22;46541;49.894;10.886;2022-12-29T14:24:27;11.80;99.90
60701;DHT22;46541;49.894;10.886;2022-12-29T14:26:54;11.80;99.90
60701;DHT22;46541;49.894;10.886;2022-12-29T14:31:48;11.80;99.90
60701;DHT22;46541;49.894;10.886;2022-12-29T14:37:03;11.80;99.90
60701;DHT22;46541;49.894;10.886;2022-12-29T14:39:34;11.80;99.90
60701;DHT22;46541;49.894;10.886;2022-12-29T14:42:06;11.80;99.90
60701;DHT22;46541;49.894;10.886;2022-12-29T14:45:31;11.80;99.90
60701;DHT22;46541;49.894;10.886;2022-12-29T14:47:51;11.80;99.90
60701;DHT22;46541;49.894;10.886;2022-12-29T14:50:23;11.80;99.90
60701;DHT22;46541;49.894;10.886;2022-12-29T14:53:04;11.80;99.90
60701;DHT22;46541;49.894;10.886;2022-12-29T14:55:47;11.80;99.90
60701;DHT22;46541;49.894;10.886;2022-12-29T15:01:47;11.70;99.90
60701;DHT22;46541;49.894;10.886;2022-12-29T15:04:22;11.60;99.90
60701;DHT22;46541;49.894;10.886;2022-12-29T15:06:50;11.50;99.90
60701;DHT22;46541;49.894;10.886;2022-12-29T15:09:40;11.50;99.90
60701;DHT22;46541;49.894;10.886;2022-12-29T15:14:57;11.40;99.90
60701;DHT22;46541;49.894;10.886;2022-12-29T15:17:28;11.40;99.90
60701;DHT22;46541;49.894;10.886;2022-12-29T15:19:57;11.30;99.90
60701;DHT22;46541;49.894;10.886;2022-12-29T15:22:25;11.30;99.90
60701;DHT22;46541;49.894;10.886;2022-12-29T15:24:53;11.30;99.90
60701;DHT22;46541;49.894;10.886;2022-12-29T15:27:25;11.20;99.90
60701;DHT22;46541;49.894;10.886;2022-12-29T15:30:01;11.20;99.90
60701;DHT22;46541;49.894;10.886;2022-12-29T15:32:38;11.20;99.90
60701;DHT22;46541;49.894;10.886;2022-12-29T15:37:49;11.10;99.90
60701;DHT22;46541;49.894;10.886;2022-12-29T15:40:29;11.10;99.90
60701;DHT22;46541;49.894;10.886;2022-12-29T15:45:50;11.10;99.90
60701;DHT22;46541;49.894;10.886;2022-12-29T15:48:20;11.10;99.90
60701;DHT22;46541;49.894;10.886;2022-12-29T15:50:48;11.10;99.90
60701;DHT22;46541;49.894;10.886;2022-12-29T15:53:22;11.10;99.90
60701;DHT22;46541;49.894;10.886;2022-12-29T15:56:06;11.10;99.90
60701;DHT22;46541;49.894;10.886;2022-12-29T15:58:49;11.10;99.90
60701;DHT22;46541;49.894;10.886;2022-12-29T16:01:29;11.10;99.90
60701;DHT22;46541;49.894;10.886;2022-12-29T16:04:07;11.10;99.90
60701;DHT22;46541;49.894;10.886;2022-12-29T16:06:35;11.10;99.90
60701;DHT22;46541;49.894;10.886;2022-12-29T16:09:14;11.10;99.90
60701;DHT22;46541;49.894;10.886;2022-12-29T16:11:50;11.10;99.90
60701;DHT22;46541;49.894;10.886;2022-12-29T16:14:30;11.10;99.90
60701;DHT22;46541;49.894;10.886;2022-12-29T16:17:01;11.10;99.90
60701;DHT22;46541;49.894;10.886;2022-12-29T16:19:36;11.10;99.90
60701;DHT22;46541;49.894;10.886;2022-12-29T16:22:14;11.00;99.90
60701;DHT22;46541;49.894;10.886;2022-12-29T16:24:45;11.00;99.90
60701;DHT22;46541;49.894;10.886;2022-12-29T16:27:31;11.00;99.90
60701;DHT22;46541;49.894;10.886;2022-12-29T16:30:04;10.90;99.90
60701;DHT22;46541;49.894;10.886;2022-12-29T16:32:33;10.80;99.90
60701;DHT22;46541;49.894;10.886;2022-12-29T16:37:32;10.70;99.90
60701;DHT22;46541;49.894;10.886;2022-12-29T16:42:48;10.40;99.90
60701;DHT22;46541;49.894;10.886;2022-12-29T16:50:34;9.90;99.90
60701;DHT22;46541;49.894;10.886;2022-12-29T16:53:03;9.80;99.90
60701;DHT22;46541;49.894;10.886;2022-12-29T16:55:31;9.70;99.90
60701;DHT22;46541;49.894;10.886;2022-12-29T16:57:59;9.70;99.90
60701;DHT22;46541;49.894;10.886;2022-12-29T17:00:32;9.70;99.90
60701;DHT22;46541;49.894;10.886;2022-12-29T17:03:01;9.60;99.90
60701;DHT22;46541;49.894;10.886;2022-12-29T17:05:28;9.70;99.90
60701;DHT22;46541;49.894;10.886;2022-12-29T17:07:55;9.60;99.90
60701;DHT22;46541;49.894;10.886;2022-12-29T17:10:28;9.60;99.90
60701;DHT22;46541;49.894;10.886;2022-12-29T17:13:14;9.50;99.90
60701;DHT22;46541;49.894;10.886;2022-12-29T17:15:41;9.50;99.90
60701;DHT22;46541;49.894;10.886;2022-12-29T17:18:08;9.50;99.90
60701;DHT22;46541;49.894;10.886;2022-12-29T17:20:39;9.50;99.90
60701;DHT22;46541;49.894;10.886;2022-12-29T17:23:14;9.50;99.90
60701;DHT22;46541;49.894;10.886;2022-12-29T17:25:48;9.50;99.90
60701;DHT22;46541;49.894;10.886;2022-12-29T17:28:23;9.50;99.90
60701;DHT22;46541;49.894;10.886;2022-12-29T17:30:52;9.50;99.90
60701;DHT22;46541;49.894;10.886;2022-12-29T17:33:21;9.50;99.90
60701;DHT22;46541;49.894;10.886;2022-12-29T17:35:47;9.50;99.90
60701;DHT22;46541;49.894;10.886;2022-12-29T17:38:27;9.50;99.90
60701;DHT22;46541;49.894;10.886;2022-12-29T17:40:54;9.50;99.90
60701;DHT22;46541;49.894;10.886;2022-12-29T17:43:21;9.40;99.90
60701;DHT22;46541;49.894;10.886;2022-12-29T17:45:53;9.40;99.90
60701;DHT22;46541;49.894;10.886;2022-12-29T17:48:21;9.40;99.90
60701;DHT22;46541;49.894;10.886;2022-12-29T17:50:50;9.30;99.90
60701;DHT22;46541;49.894;10.886;2022-12-29T17:53:21;9.30;99.90
60701;DHT22;46541;49.894;10.886;2022-12-29T17:55:49;9.30;99.90
60701;DHT22;46541;49.894;10.886;2022-12-29T17:58:42;9.20;99.90
60701;DHT22;46541;49.894;10.886;2022-12-29T18:01:09;9.20;99.90
60701;DHT22;46541;49.894;10.886;2022-12-29T18:03:39;9.20;99.90
60701;DHT22;46541;49.894;10.886;2022-12-29T18:06:08;9.10;99.90
60701;DHT22;46541;49.894;10.886;2022-12-29T18:08:38;9.10;99.90
60701;DHT22;46541;49.894;10.886;2022-12-29T18:11:23;9.10;99.90
60701;DHT22;46541;49.894;10.886;2022-12-29T18:13:51;9.10;99.90
60701;DHT22;46541;49.894;10.886;2022-12-29T18:16:21;9.10;99.90
60701;DHT22;46541;49.894;10.886;2022-12-29T18:18:49;9.10;99.90
60701;DHT22;46541;49.894;10.886;2022-12-29T18:21:18;9.10;99.90
60701;DHT22;46541;49.894;10.886;2022-12-29T18:23:46;9.10;99.90